sensor_id;sensor_type;location;lat;lon;timestamp;P1;durP1;ratioP1;P2;durP2;ratioP2
4696;SDS011;2362;50.780;0.292;2022-09-29T12:12:08;13.98;;;1.23;;
4696;SDS011;2362;50.780;0.292;2022-09-29T12:17:31;9.90;;;1.23;;
4696;SDS011;2362;50.780;0.292;2022-09-29T12:20:23;9.88;;;1.55;;
4696;SDS011;2362;50.780;0.292;2022-09-29T12:22:53;18.08;;;2.97;;
4696;SDS011;2362;50.780;0.292;2022-09-29T12:35:05;4.40;;;1.13;;
4696;SDS011;2362;50.780;0.292;2022-09-29T12:43:11;3.60;;;1.38;;
4696;SDS011;2362;50.780;0.292;2022-09-29T12:46:02;5.15;;;1.63;;
4696;SDS011;2362;50.780;0.292;2022-09-29T12:51:34;5.78;;;1.60;;
4696;SDS011;2362;50.780;0.292;2022-09-29T12:56:47;2.38;;;1.38;;
4696;SDS011;2362;50.780;0.292;2022-09-29T13:00:00;2.88;;;1.50;;
4696;SDS011;2362;50.780;0.292;2022-09-29T13:02:26;4.55;;;1.60;;
4696;SDS011;2362;50.780;0.292;2022-09-29T13:07:33;2.65;;;1.35;;
4696;SDS011;2362;50.780;0.292;2022-09-29T13:19:15;2.40;;;1.13;;
4696;SDS011;2362;50.780;0.292;2022-09-29T13:27:24;1.60;;;1.10;;
4696;SDS011;2362;50.780;0.292;2022-09-29T13:29:56;4.30;;;1.20;;
4696;SDS011;2362;50.780;0.292;2022-09-29T13:32:24;6.43;;;1.13;;
4696;SDS011;2362;50.780;0.292;2022-09-29T13:34:54;3.83;;;1.27;;
4696;SDS011;2362;50.780;0.292;2022-09-29T13:37:24;3.83;;;1.40;;
4696;SDS011;2362;50.780;0.292;2022-09-29T13:39:54;2.92;;;1.15;;
4696;SDS011;2362;50.780;0.292;2022-09-29T13:58:30;5.80;;;1.13;;
4696;SDS011;2362;50.780;0.292;2022-09-29T14:01:04;3.30;;;1.10;;
4696;SDS011;2362;50.780;0.292;2022-09-29T14:03:32;6.47;;;1.42;;
4696;SDS011;2362;50.780;0.292;2022-09-29T14:06:21;3.70;;;1.15;;
4696;SDS011;2362;50.780;0.292;2022-09-29T14:08:49;4.93;;;1.30;;
4696;SDS011;2362;50.780;0.292;2022-09-29T14:11:32;4.22;;;1.10;;
4696;SDS011;2362;50.780;0.292;2022-09-29T14:20:19;1.85;;;1.00;;
4696;SDS011;2362;50.780;0.292;2022-09-29T14:22:53;1.13;;;0.95;;
4696;SDS011;2362;50.780;0.292;2022-09-29T14:33:01;2.55;;;1.08;;
4696;SDS011;2362;50.780;0.292;2022-09-29T14:35:53;2.75;;;0.93;;
4696;SDS011;2362;50.780;0.292;2022-09-29T14:38:24;6.93;;;1.77;;
4696;SDS011;2362;50.780;0.292;2022-09-29T14:41:00;1.92;;;0.80;;
4696;SDS011;2362;50.780;0.292;2022-09-29T14:43:50;3.45;;;1.10;;
4696;SDS011;2362;50.780;0.292;2022-09-29T14:46:31;2.28;;;0.70;;
4696;SDS011;2362;50.780;0.292;2022-09-29T14:56:01;3.13;;;1.15;;
4696;SDS011;2362;50.780;0.292;2022-09-29T15:03:53;1.63;;;1.08;;
4696;SDS011;2362;50.780;0.292;2022-09-29T15:06:30;5.55;;;0.63;;
4696;SDS011;2362;50.780;0.292;2022-09-29T15:11:28;2.88;;;0.93;;
4696;SDS011;2362;50.780;0.292;2022-09-29T15:23:07;1.65;;;0.80;;
4696;SDS011;2362;50.780;0.292;2022-09-29T15:25:33;2.88;;;0.80;;
4696;SDS011;2362;50.780;0.292;2022-09-29T15:28:03;6.22;;;0.90;;
4696;SDS011;2362;50.780;0.292;2022-09-29T15:30:36;3.05;;;0.82;;
4696;SDS011;2362;50.780;0.292;2022-09-29T15:36:07;1.70;;;0.60;;
4696;SDS011;2362;50.780;0.292;2022-09-29T15:38:42;3.00;;;0.60;;
4696;SDS011;2362;50.780;0.292;2022-09-29T15:41:13;1.23;;;0.65;;
4696;SDS011;2362;50.780;0.292;2022-09-29T15:43:57;1.35;;;0.85;;
4696;SDS011;2362;50.780;0.292;2022-09-29T15:46:28;5.13;;;1.02;;
4696;SDS011;2362;50.780;0.292;2022-09-29T15:49:04;1.88;;;0.77;;
4696;SDS011;2362;50.780;0.292;2022-09-29T15:54:36;2.92;;;1.00;;
4696;SDS011;2362;50.780;0.292;2022-09-29T15:57:04;2.65;;;0.70;;
4696;SDS011;2362;50.780;0.292;2022-09-29T15:59:50;1.85;;;0.60;;
4696;SDS011;2362;50.780;0.292;2022-09-29T16:02:28;2.00;;;0.55;;
4696;SDS011;2362;50.780;0.292;2022-09-29T16:05:09;1.35;;;0.60;;
4696;SDS011;2362;50.780;0.292;2022-09-29T16:07:40;2.90;;;1.00;;
4696;SDS011;2362;50.780;0.292;2022-09-29T16:10:19;2.45;;;0.98;;
4696;SDS011;2362;50.780;0.292;2022-09-29T16:12:48;2.45;;;0.90;;
4696;SDS011;2362;50.780;0.292;2022-09-29T16:15:34;1.77;;;0.63;;
4696;SDS011;2362;50.780;0.292;2022-09-29T16:18:15;1.95;;;0.68;;
4696;SDS011;2362;50.780;0.292;2022-09-29T16:23:26;2.83;;;0.70;;
4696;SDS011;2362;50.780;0.292;2022-09-29T16:28:40;1.88;;;0.75;;
4696;SDS011;2362;50.780;0.292;2022-09-29T16:31:51;3.38;;;1.65;;
4696;SDS011;2362;50.780;0.292;2022-09-29T16:36:57;2.90;;;0.88;;
4696;SDS011;2362;50.780;0.292;2022-09-29T16:39:38;1.73;;;0.57;;
4696;SDS011;2362;50.780;0.292;2022-09-29T16:42:13;2.80;;;0.93;;
4696;SDS011;2362;50.780;0.292;2022-09-29T16:44:47;7.97;;;1.00;;
4696;SDS011;2362;50.780;0.292;2022-09-29T16:47:20;2.30;;;0.77;;
4696;SDS011;2362;50.780;0.292;2022-09-29T16:52:25;0.98;;;0.80;;
4696;SDS011;2362;50.780;0.292;2022-09-29T16:57:58;2.00;;;0.90;;
4696;SDS011;2362;50.780;0.292;2022-09-29T17:00:27;3.65;;;0.77;;
4696;SDS011;2362;50.780;0.292;2022-09-29T17:02:54;2.00;;;0.65;;
4696;SDS011;2362;50.780;0.292;2022-09-29T17:05:22;3.88;;;1.05;;
4696;SDS011;2362;50.780;0.292;2022-09-29T17:07:49;2.25;;;0.65;;
4696;SDS011;2362;50.780;0.292;2022-09-29T17:10:27;7.45;;;0.82;;
4696;SDS011;2362;50.780;0.292;2022-09-29T17:12:53;2.05;;;0.73;;
4696;SDS011;2362;50.780;0.292;2022-09-29T17:15:19;2.22;;;0.60;;
4696;SDS011;2362;50.780;0.292;2022-09-29T17:18:12;2.80;;;0.85;;
4696;SDS011;2362;50.780;0.292;2022-09-29T17:20:39;2.10;;;0.80;;
4696;SDS011;2362;50.780;0.292;2022-09-29T17:23:05;2.13;;;0.82;;
4696;SDS011;2362;50.780;0.292;2022-09-29T17:25:32;1.00;;;0.65;;
4696;SDS011;2362;50.780;0.292;2022-09-29T17:27:58;2.88;;;0.75;;
4696;SDS011;2362;50.780;0.292;2022-09-29T17:30:37;0.57;;;0.57;;
4696;SDS011;2362;50.780;0.292;2022-09-29T17:33:04;3.97;;;1.05;;
4696;SDS011;2362;50.780;0.292;2022-09-29T17:35:32;2.65;;;0.93;;
4696;SDS011;2362;50.780;0.292;2022-09-29T17:38:01;4.45;;;1.17;;
4696;SDS011;2362;50.780;0.292;2022-09-29T17:43:12;9.88;;;2.55;;
4696;SDS011;2362;50.780;0.292;2022-09-29T17:45:38;3.08;;;1.85;;
4696;SDS011;2362;50.780;0.292;2022-09-29T17:48:06;7.75;;;1.45;;
4696;SDS011;2362;50.780;0.292;2022-09-29T17:50:44;15.00;;;2.58;;
4696;SDS011;2362;50.780;0.292;2022-09-29T17:53:12;9.15;;;2.13;;
4696;SDS011;2362;50.780;0.292;2022-09-29T17:55:39;5.28;;;1.73;;
4696;SDS011;2362;50.780;0.292;2022-09-29T17:58:06;7.43;;;2.20;;
4696;SDS011;2362;50.780;0.292;2022-09-29T18:00:36;4.18;;;2.05;;
4696;SDS011;2362;50.780;0.292;2022-09-29T18:03:07;8.43;;;2.08;;
4696;SDS011;2362;50.780;0.292;2022-09-29T18:05:35;4.85;;;2.20;;
4696;SDS011;2362;50.780;0.292;2022-09-29T18:08:03;11.10;;;2.13;;
4696;SDS011;2362;50.780;0.292;2022-09-29T18:13:02;7.47;;;3.15;;
4696;SDS011;2362;50.780;0.292;2022-09-29T18:15:28;16.40;;;4.47;;
4696;SDS011;2362;50.780;0.292;2022-09-29T18:17:55;17.95;;;8.25;;
4696;SDS011;2362;50.780;0.292;2022-09-29T18:20:22;17.00;;;6.55;;
4696;SDS011;2362;50.780;0.292;2022-09-29T18:22:49;28.40;;;8.20;;
4696;SDS011;2362;50.780;0.292;2022-09-29T18:25:16;13.77;;;4.53;;
4696;SDS011;2362;50.780;0.292;2022-09-29T18:27:43;19.23;;;7.72;;
4696;SDS011;2362;50.780;0.292;2022-09-29T18:30:14;51.10;;;21.73;;
4696;SDS011;2362;50.780;0.292;2022-09-29T18:32:46;43.47;;;18.80;;
4696;SDS011;2362;50.780;0.292;2022-09-29T18:35:14;59.78;;;24.80;;
4696;SDS011;2362;50.780;0.292;2022-09-29T18:37:41;44.00;;;20.05;;
4696;SDS011;2362;50.780;0.292;2022-09-29T18:40:07;62.95;;;23.10;;
4696;SDS011;2362;50.780;0.292;2022-09-29T18:42:55;36.67;;;13.57;;
4696;SDS011;2362;50.780;0.292;2022-09-29T18:45:22;20.75;;;5.72;;
4696;SDS011;2362;50.780;0.292;2022-09-29T18:47:54;10.63;;;5.05;;
4696;SDS011;2362;50.780;0.292;2022-09-29T18:50:28;14.93;;;5.70;;
4696;SDS011;2362;50.780;0.292;2022-09-29T18:52:59;14.02;;;4.75;;
4696;SDS011;2362;50.780;0.292;2022-09-29T18:55:26;13.88;;;4.00;;
4696;SDS011;2362;50.780;0.292;2022-09-29T18:57:55;10.55;;;4.10;;
4696;SDS011;2362;50.780;0.292;2022-09-29T19:00:23;13.20;;;3.90;;
4696;SDS011;2362;50.780;0.292;2022-09-29T19:02:57;10.07;;;4.18;;
4696;SDS011;2362;50.780;0.292;2022-09-29T19:05:26;12.65;;;4.35;;
4696;SDS011;2362;50.780;0.292;2022-09-29T19:07:57;17.13;;;4.97;;
4696;SDS011;2362;50.780;0.292;2022-09-29T19:10:29;12.75;;;3.83;;
4696;SDS011;2362;50.780;0.292;2022-09-29T19:13:07;9.52;;;3.55;;
4696;SDS011;2362;50.780;0.292;2022-09-29T19:15:40;9.75;;;3.47;;
4696;SDS011;2362;50.780;0.292;2022-09-29T19:18:15;12.27;;;3.97;;
4696;SDS011;2362;50.780;0.292;2022-09-29T19:20:47;12.70;;;4.10;;
4696;SDS011;2362;50.780;0.292;2022-09-29T19:23:14;9.43;;;3.50;;
4696;SDS011;2362;50.780;0.292;2022-09-29T19:25:44;19.45;;;3.22;;
4696;SDS011;2362;50.780;0.292;2022-09-29T19:28:11;14.90;;;2.78;;
4696;SDS011;2362;50.780;0.292;2022-09-29T19:30:38;6.30;;;2.70;;
4696;SDS011;2362;50.780;0.292;2022-09-29T19:33:06;7.35;;;2.42;;
4696;SDS011;2362;50.780;0.292;2022-09-29T19:35:34;10.43;;;2.85;;
4696;SDS011;2362;50.780;0.292;2022-09-29T19:38:00;10.93;;;3.28;;
4696;SDS011;2362;50.780;0.292;2022-09-29T19:40:28;6.75;;;2.67;;
4696;SDS011;2362;50.780;0.292;2022-09-29T19:42:55;8.70;;;3.92;;
4696;SDS011;2362;50.780;0.292;2022-09-29T19:45:23;10.77;;;3.85;;
4696;SDS011;2362;50.780;0.292;2022-09-29T19:47:50;14.65;;;4.95;;
4696;SDS011;2362;50.780;0.292;2022-09-29T19:50:18;14.20;;;6.05;;
4696;SDS011;2362;50.780;0.292;2022-09-29T19:53:03;13.77;;;6.40;;
4696;SDS011;2362;50.780;0.292;2022-09-29T19:55:29;17.50;;;6.40;;
4696;SDS011;2362;50.780;0.292;2022-09-29T19:57:56;11.68;;;6.22;;
4696;SDS011;2362;50.780;0.292;2022-09-29T20:00:23;15.63;;;6.30;;
4696;SDS011;2362;50.780;0.292;2022-09-29T20:02:49;21.83;;;6.75;;
4696;SDS011;2362;50.780;0.292;2022-09-29T20:05:16;15.48;;;5.55;;
4696;SDS011;2362;50.780;0.292;2022-09-29T20:07:42;13.63;;;6.15;;
4696;SDS011;2362;50.780;0.292;2022-09-29T20:10:09;16.83;;;6.05;;
4696;SDS011;2362;50.780;0.292;2022-09-29T20:12:37;14.25;;;6.53;;
4696;SDS011;2362;50.780;0.292;2022-09-29T20:15:04;20.40;;;5.68;;
4696;SDS011;2362;50.780;0.292;2022-09-29T20:17:31;15.25;;;6.65;;
4696;SDS011;2362;50.780;0.292;2022-09-29T20:19:58;17.02;;;6.50;;
4696;SDS011;2362;50.780;0.292;2022-09-29T20:22:24;19.40;;;6.50;;
4696;SDS011;2362;50.780;0.292;2022-09-29T20:24:51;12.57;;;5.22;;
4696;SDS011;2362;50.780;0.292;2022-09-29T20:27:17;14.05;;;6.45;;
4696;SDS011;2362;50.780;0.292;2022-09-29T20:29:44;8.45;;;4.65;;
4696;SDS011;2362;50.780;0.292;2022-09-29T20:32:12;18.40;;;6.18;;
4696;SDS011;2362;50.780;0.292;2022-09-29T20:34:43;22.25;;;6.35;;
4696;SDS011;2362;50.780;0.292;2022-09-29T20:37:09;12.40;;;5.60;;
4696;SDS011;2362;50.780;0.292;2022-09-29T20:39:37;16.67;;;5.70;;
4696;SDS011;2362;50.780;0.292;2022-09-29T20:42:03;16.27;;;6.30;;
4696;SDS011;2362;50.780;0.292;2022-09-29T20:44:29;17.63;;;5.28;;
4696;SDS011;2362;50.780;0.292;2022-09-29T20:46:55;18.15;;;6.05;;
4696;SDS011;2362;50.780;0.292;2022-09-29T20:49:21;12.45;;;5.75;;
4696;SDS011;2362;50.780;0.292;2022-09-29T20:51:49;11.93;;;5.22;;
4696;SDS011;2362;50.780;0.292;2022-09-29T20:54:16;16.88;;;5.65;;
4696;SDS011;2362;50.780;0.292;2022-09-29T20:56:42;13.80;;;4.78;;
4696;SDS011;2362;50.780;0.292;2022-09-29T20:59:10;15.00;;;5.38;;
4696;SDS011;2362;50.780;0.292;2022-09-29T21:01:38;11.63;;;5.63;;
4696;SDS011;2362;50.780;0.292;2022-09-29T21:04:05;22.88;;;5.75;;
4696;SDS011;2362;50.780;0.292;2022-09-29T21:06:34;10.57;;;4.45;;
4696;SDS011;2362;50.780;0.292;2022-09-29T21:09:05;19.02;;;5.50;;
4696;SDS011;2362;50.780;0.292;2022-09-29T21:11:33;13.80;;;5.53;;
4696;SDS011;2362;50.780;0.292;2022-09-29T21:14:08;12.00;;;5.13;;
4696;SDS011;2362;50.780;0.292;2022-09-29T21:16:41;16.55;;;4.95;;
4696;SDS011;2362;50.780;0.292;2022-09-29T21:19:07;10.43;;;5.75;;
4696;SDS011;2362;50.780;0.292;2022-09-29T21:21:34;11.10;;;5.45;;
4696;SDS011;2362;50.780;0.292;2022-09-29T21:24:00;15.85;;;5.32;;
4696;SDS011;2362;50.780;0.292;2022-09-29T21:26:27;12.57;;;4.90;;
4696;SDS011;2362;50.780;0.292;2022-09-29T21:28:56;16.00;;;5.93;;
4696;SDS011;2362;50.780;0.292;2022-09-29T21:31:27;17.90;;;6.32;;
4696;SDS011;2362;50.780;0.292;2022-09-29T21:33:55;10.77;;;5.28;;
4696;SDS011;2362;50.780;0.292;2022-09-29T21:36:23;21.45;;;5.00;;
4696;SDS011;2362;50.780;0.292;2022-09-29T21:38:52;14.13;;;5.63;;
4696;SDS011;2362;50.780;0.292;2022-09-29T21:41:19;20.60;;;5.80;;
4696;SDS011;2362;50.780;0.292;2022-09-29T21:43:51;13.45;;;5.05;;
4696;SDS011;2362;50.780;0.292;2022-09-29T21:46:19;10.73;;;4.95;;
4696;SDS011;2362;50.780;0.292;2022-09-29T21:48:50;16.45;;;6.00;;
4696;SDS011;2362;50.780;0.292;2022-09-29T21:51:18;11.88;;;5.85;;
4696;SDS011;2362;50.780;0.292;2022-09-29T21:53:56;11.40;;;6.03;;
4696;SDS011;2362;50.780;0.292;2022-09-29T21:56:24;16.13;;;5.35;;
4696;SDS011;2362;50.780;0.292;2022-09-29T21:58:52;12.88;;;5.38;;
4696;SDS011;2362;50.780;0.292;2022-09-29T22:01:18;13.00;;;5.53;;
4696;SDS011;2362;50.780;0.292;2022-09-29T22:03:46;13.77;;;5.80;;
4696;SDS011;2362;50.780;0.292;2022-09-29T22:06:17;16.20;;;5.60;;
4696;SDS011;2362;50.780;0.292;2022-09-29T22:08:44;13.05;;;5.72;;
4696;SDS011;2362;50.780;0.292;2022-09-29T22:11:20;17.08;;;5.85;;
4696;SDS011;2362;50.780;0.292;2022-09-29T22:13:50;14.82;;;5.75;;
4696;SDS011;2362;50.780;0.292;2022-09-29T22:16:18;9.73;;;5.45;;
4696;SDS011;2362;50.780;0.292;2022-09-29T22:18:48;15.65;;;6.47;;
4696;SDS011;2362;50.780;0.292;2022-09-29T22:21:16;20.55;;;6.20;;
4696;SDS011;2362;50.780;0.292;2022-09-29T22:23:44;16.98;;;5.75;;
4696;SDS011;2362;50.780;0.292;2022-09-29T22:26:11;18.67;;;6.90;;
4696;SDS011;2362;50.780;0.292;2022-09-29T22:28:39;17.10;;;5.95;;
4696;SDS011;2362;50.780;0.292;2022-09-29T22:31:06;19.83;;;6.47;;
4696;SDS011;2362;50.780;0.292;2022-09-29T22:33:36;14.18;;;6.07;;
4696;SDS011;2362;50.780;0.292;2022-09-29T22:36:03;13.90;;;5.60;;
4696;SDS011;2362;50.780;0.292;2022-09-29T22:38:29;11.98;;;5.80;;
4696;SDS011;2362;50.780;0.292;2022-09-29T22:40:58;19.98;;;5.25;;
4696;SDS011;2362;50.780;0.292;2022-09-29T22:43:24;12.02;;;4.82;;
4696;SDS011;2362;50.780;0.292;2022-09-29T22:45:50;10.73;;;5.22;;
4696;SDS011;2362;50.780;0.292;2022-09-29T22:48:17;14.38;;;5.47;;
4696;SDS011;2362;50.780;0.292;2022-09-29T22:50:44;14.95;;;5.25;;
4696;SDS011;2362;50.780;0.292;2022-09-29T22:53:11;23.20;;;6.68;;
4696;SDS011;2362;50.780;0.292;2022-09-29T22:55:38;11.63;;;5.53;;
4696;SDS011;2362;50.780;0.292;2022-09-29T22:58:09;11.82;;;5.28;;
4696;SDS011;2362;50.780;0.292;2022-09-29T23:00:36;14.93;;;6.47;;
4696;SDS011;2362;50.780;0.292;2022-09-29T23:03:04;19.42;;;5.20;;
4696;SDS011;2362;50.780;0.292;2022-09-29T23:05:31;15.68;;;6.47;;
4696;SDS011;2362;50.780;0.292;2022-09-29T23:07:57;17.70;;;7.18;;
4696;SDS011;2362;50.780;0.292;2022-09-29T23:10:23;16.42;;;7.22;;
4696;SDS011;2362;50.780;0.292;2022-09-29T23:12:49;15.05;;;6.72;;
4696;SDS011;2362;50.780;0.292;2022-09-29T23:15:15;15.73;;;7.75;;
4696;SDS011;2362;50.780;0.292;2022-09-29T23:17:42;19.15;;;7.85;;
4696;SDS011;2362;50.780;0.292;2022-09-29T23:20:08;30.80;;;9.20;;
4696;SDS011;2362;50.780;0.292;2022-09-29T23:22:34;18.27;;;7.70;;
4696;SDS011;2362;50.780;0.292;2022-09-29T23:24:59;17.27;;;7.25;;
4696;SDS011;2362;50.780;0.292;2022-09-29T23:27:28;16.65;;;7.43;;
4696;SDS011;2362;50.780;0.292;2022-09-29T23:29:54;16.85;;;6.72;;
4696;SDS011;2362;50.780;0.292;2022-09-29T23:32:20;17.88;;;7.00;;
4696;SDS011;2362;50.780;0.292;2022-09-29T23:34:46;17.27;;;6.30;;
4696;SDS011;2362;50.780;0.292;2022-09-29T23:37:11;13.75;;;6.80;;
4696;SDS011;2362;50.780;0.292;2022-09-29T23:39:37;18.58;;;7.55;;
4696;SDS011;2362;50.780;0.292;2022-09-29T23:42:03;15.65;;;7.28;;
4696;SDS011;2362;50.780;0.292;2022-09-29T23:44:33;13.40;;;6.35;;
4696;SDS011;2362;50.780;0.292;2022-09-29T23:47:00;12.68;;;6.13;;
4696;SDS011;2362;50.780;0.292;2022-09-29T23:49:26;19.95;;;5.97;;
4696;SDS011;2362;50.780;0.292;2022-09-29T23:51:56;14.77;;;6.38;;
4696;SDS011;2362;50.780;0.292;2022-09-29T23:54:24;14.65;;;6.20;;
4696;SDS011;2362;50.780;0.292;2022-09-29T23:56:52;12.35;;;6.18;;
4696;SDS011;2362;50.780;0.292;2022-09-29T23:59:20;18.25;;;7.15;;
